createdAt,value
2023-05-03T00:00:14.129Z,42.54
2023-05-03T00:01:14.131Z,39.80
2023-05-03T00:02:14.194Z,40.12
2023-05-03T00:03:14.137Z,41.89
2023-05-03T00:04:14.091Z,39.96
2023-05-03T00:05:14.134Z,42.86
2023-05-03T00:06:14.175Z,43.34
2023-05-03T00:07:14.036Z,44.31
2023-05-03T00:08:14.072Z,41.25
2023-05-03T00:09:14.060Z,40.77
2023-05-03T00:10:14.055Z,38.83
2023-05-03T00:11:13.990Z,39.80
2023-05-03T00:12:14.971Z,41.57
2023-05-03T00:13:13.998Z,53.33
2023-05-03T00:14:14.009Z,39.80
2023-05-03T00:15:13.994Z,40.44
2023-05-03T00:16:14.050Z,45.28
2023-05-03T00:17:14.039Z,39.80
2023-05-03T00:18:14.008Z,39.32
2023-05-03T00:19:24.170Z,46.57
2023-05-03T00:20:13.937Z,42.70
2023-05-03T00:21:13.955Z,47.37
2023-05-03T00:22:13.933Z,53.66
2023-05-03T00:23:13.892Z,40.93
2023-05-03T00:24:13.887Z,39.96
2023-05-03T00:25:13.888Z,39.80
2023-05-03T00:26:13.870Z,40.61
2023-05-03T00:27:14.113Z,40.12
2023-05-03T00:28:13.825Z,41.25
2023-05-03T00:29:13.866Z,44.15
2023-05-03T00:30:13.856Z,46.89
2023-05-03T00:31:13.904Z,49.79
2023-05-03T00:32:14.525Z,50.76
2023-05-03T00:33:13.797Z,39.64
2023-05-03T00:34:13.784Z,39.96
2023-05-03T00:35:13.785Z,45.12
2023-05-03T00:36:13.776Z,40.28
2023-05-03T00:37:13.735Z,42.22
2023-05-03T00:38:13.791Z,41.41
2023-05-03T00:39:13.709Z,41.25
2023-05-03T00:40:13.730Z,41.41
2023-05-03T00:41:13.740Z,40.28
2023-05-03T00:42:13.734Z,42.38
2023-05-03T00:43:13.733Z,40.61
2023-05-03T00:44:13.687Z,39.96
2023-05-03T00:45:13.722Z,40.61
2023-05-03T00:46:17.422Z,40.61
2023-05-03T00:47:13.716Z,40.28
2023-05-03T00:48:13.684Z,40.12
2023-05-03T00:49:13.625Z,40.28
2023-05-03T00:50:13.638Z,41.25
2023-05-03T00:51:13.637Z,41.41
2023-05-03T00:52:13.622Z,52.69
2023-05-03T00:53:13.595Z,43.02
2023-05-03T00:54:13.568Z,48.18
2023-05-03T00:55:13.554Z,41.25
2023-05-03T00:56:13.578Z,45.44
2023-05-03T00:57:14.359Z,41.89
2023-05-03T00:58:13.553Z,40.61
2023-05-03T00:59:13.519Z,45.12
2023-05-03T01:00:13.543Z,45.28
2023-05-03T01:01:13.609Z,41.09
2023-05-03T01:02:13.503Z,40.93
2023-05-03T01:03:14.476Z,40.12
2023-05-03T01:04:13.484Z,39.80
2023-05-03T01:05:13.478Z,40.44
2023-05-03T01:06:13.569Z,40.93
2023-05-03T01:07:13.441Z,41.57
2023-05-03T01:08:13.446Z,40.44
2023-05-03T01:09:13.462Z,41.09
2023-05-03T01:10:13.423Z,40.28
2023-05-03T01:11:13.439Z,44.31
2023-05-03T01:12:13.409Z,44.63
2023-05-03T01:13:13.463Z,39.96
2023-05-03T01:14:13.425Z,40.12
2023-05-03T01:15:13.367Z,39.96
2023-05-03T01:16:13.403Z,41.09
2023-05-03T01:17:13.475Z,41.25
2023-05-03T01:18:13.429Z,39.48
2023-05-03T01:19:13.328Z,40.77
2023-05-03T01:20:13.319Z,40.93
2023-05-03T01:21:13.305Z,43.67
2023-05-03T01:22:13.547Z,42.54
2023-05-03T01:23:13.290Z,46.89
2023-05-03T01:24:13.283Z,43.83
2023-05-03T01:25:13.362Z,40.28
2023-05-03T01:26:13.279Z,40.93
2023-05-03T01:27:13.292Z,42.86
2023-05-03T01:28:13.251Z,40.77
2023-05-03T01:29:13.219Z,41.41
2023-05-03T01:30:13.208Z,46.57
2023-05-03T01:31:13.271Z,40.93
2023-05-03T01:32:13.261Z,42.86
2023-05-03T01:33:13.190Z,43.18
2023-05-03T01:34:13.181Z,40.44
2023-05-03T01:35:13.159Z,40.44
2023-05-03T01:36:13.508Z,65.10
2023-05-03T01:37:13.169Z,42.54
2023-05-03T01:38:13.172Z,48.50
2023-05-03T01:39:13.155Z,39.64
2023-05-03T01:40:13.122Z,42.06
2023-05-03T01:41:14.094Z,41.25
2023-05-03T01:42:13.141Z,40.44
2023-05-03T01:43:13.114Z,40.12
2023-05-03T01:44:13.123Z,40.28
2023-05-03T01:45:13.114Z,44.79
2023-05-03T01:46:13.090Z,41.89
2023-05-03T01:47:13.068Z,40.77
2023-05-03T01:48:13.071Z,43.67
2023-05-03T01:49:13.021Z,43.02
2023-05-03T01:50:13.089Z,41.89
2023-05-03T01:51:13.024Z,44.96
2023-05-03T01:52:13.041Z,41.73
2023-05-03T01:53:13.013Z,54.62
2023-05-03T01:54:13.012Z,39.96
2023-05-03T01:55:12.975Z,42.54
2023-05-03T01:56:12.965Z,42.54
2023-05-03T01:57:12.974Z,41.57
2023-05-03T01:58:12.957Z,40.77
2023-05-03T01:59:12.953Z,42.22
2023-05-03T02:00:12.925Z,45.44
2023-05-03T02:01:12.935Z,68.32
2023-05-03T02:02:13.004Z,42.22
2023-05-03T02:03:12.972Z,49.47
2023-05-03T02:04:13.010Z,70.25
2023-05-03T02:05:12.901Z,42.70
2023-05-03T02:06:12.936Z,40.77
2023-05-03T02:07:12.881Z,41.09
2023-05-03T02:08:12.919Z,41.73
2023-05-03T02:09:12.843Z,41.89
2023-05-03T02:10:12.865Z,54.62
2023-05-03T02:11:12.811Z,54.14
2023-05-03T02:12:12.804Z,40.93
2023-05-03T02:13:12.842Z,41.89
2023-05-03T02:14:12.798Z,50.60
2023-05-03T02:15:12.805Z,41.41
2023-05-03T02:16:12.774Z,40.77
2023-05-03T02:17:12.808Z,47.86
2023-05-03T02:18:12.798Z,40.44
2023-05-03T02:19:12.728Z,42.86
2023-05-03T02:20:12.782Z,42.70
2023-05-03T02:21:12.753Z,43.83
2023-05-03T02:22:12.718Z,40.77
2023-05-03T02:23:12.752Z,42.22
2023-05-03T02:24:12.694Z,40.28
2023-05-03T02:25:12.670Z,41.25
2023-05-03T02:26:12.681Z,42.06
2023-05-03T02:27:12.687Z,46.73
2023-05-03T02:28:12.748Z,48.02
2023-05-03T02:29:12.668Z,41.25
2023-05-03T02:30:12.629Z,50.27
2023-05-03T02:31:12.667Z,41.73
2023-05-03T02:32:12.610Z,45.44
2023-05-03T02:33:12.660Z,44.47
2023-05-03T02:34:12.609Z,41.41
2023-05-03T02:35:12.597Z,44.31
2023-05-03T02:36:12.610Z,42.86
2023-05-03T02:37:12.585Z,55.43
2023-05-03T02:38:12.557Z,45.28
2023-05-03T02:39:12.534Z,45.60
2023-05-03T02:40:12.556Z,45.44
2023-05-03T02:41:13.405Z,49.31
2023-05-03T02:42:12.517Z,48.50
2023-05-03T02:43:12.509Z,42.54
2023-05-03T02:44:12.485Z,48.02
2023-05-03T02:45:12.528Z,53.33
2023-05-03T02:46:12.533Z,42.22
2023-05-03T02:47:12.501Z,42.70
2023-05-03T02:48:12.473Z,46.89
2023-05-03T02:49:12.462Z,46.57
2023-05-03T02:50:12.446Z,50.76
2023-05-03T02:51:12.436Z,54.62
2023-05-03T02:52:12.506Z,48.34
2023-05-03T02:53:12.540Z,52.21
2023-05-03T02:54:12.436Z,55.75
2023-05-03T02:55:12.404Z,43.99
2023-05-03T02:56:12.369Z,52.37
2023-05-03T02:57:12.413Z,63.65
2023-05-03T02:58:12.351Z,54.62
2023-05-03T02:59:12.334Z,43.83
2023-05-03T03:00:12.336Z,53.82
2023-05-03T03:01:12.354Z,57.69
2023-05-03T03:02:12.351Z,54.79
2023-05-03T03:03:12.404Z,50.27
2023-05-03T03:04:12.328Z,48.66
2023-05-03T03:05:12.287Z,60.91
2023-05-03T03:06:12.302Z,61.71
2023-05-03T03:07:12.321Z,50.27
2023-05-03T03:08:12.249Z,62.04
2023-05-03T03:09:12.255Z,59.30
2023-05-03T03:10:12.243Z,52.53
2023-05-03T03:11:12.225Z,51.56
2023-05-03T03:12:12.253Z,49.31
2023-05-03T03:13:12.243Z,49.63
2023-05-03T03:14:12.241Z,47.05
2023-05-03T03:15:12.190Z,68.64
2023-05-03T03:16:12.258Z,62.04
2023-05-03T03:17:12.206Z,44.79
2023-05-03T03:18:12.250Z,63.00
2023-05-03T03:19:12.143Z,49.63
2023-05-03T03:20:12.150Z,52.53
2023-05-03T03:21:12.127Z,61.07
2023-05-03T03:22:12.133Z,56.88
2023-05-03T03:23:12.089Z,60.10
2023-05-03T03:24:12.884Z,60.26
2023-05-03T03:25:12.037Z,60.10
2023-05-03T03:26:12.071Z,55.27
2023-05-03T03:27:12.052Z,63.33
2023-05-03T03:28:12.059Z,53.17
2023-05-03T03:29:12.072Z,49.47
2023-05-03T03:30:12.023Z,52.53
2023-05-03T03:31:12.029Z,62.52
2023-05-03T03:32:12.119Z,70.42
2023-05-03T03:33:12.148Z,57.36
2023-05-03T03:34:11.964Z,56.24
2023-05-03T03:35:11.944Z,71.54
2023-05-03T03:36:11.948Z,50.43
2023-05-03T03:37:11.921Z,59.78
2023-05-03T03:38:11.951Z,51.56
2023-05-03T03:39:11.896Z,56.88
2023-05-03T03:40:11.873Z,61.71
2023-05-03T03:41:11.886Z,51.40
2023-05-03T03:42:11.965Z,70.09
2023-05-03T03:43:11.897Z,60.42
2023-05-03T03:44:11.906Z,56.56
2023-05-03T03:45:11.867Z,55.27
2023-05-03T03:46:11.851Z,60.42
2023-05-03T03:47:11.868Z,67.84
2023-05-03T03:48:11.865Z,59.78
2023-05-03T03:49:11.793Z,56.88
2023-05-03T03:50:11.817Z,63.49
2023-05-03T03:51:11.821Z,54.62
2023-05-03T03:52:11.781Z,53.66
2023-05-03T03:53:11.844Z,64.94
2023-05-03T03:54:11.750Z,55.11
2023-05-03T03:55:11.743Z,61.71
2023-05-03T03:56:11.741Z,52.05
2023-05-03T03:57:11.728Z,60.42
2023-05-03T03:58:11.790Z,60.26
2023-05-03T03:59:11.702Z,57.85
2023-05-03T04:00:11.724Z,62.52
2023-05-03T04:01:11.698Z,58.49
2023-05-03T04:02:11.703Z,62.36
2023-05-03T04:03:11.757Z,58.17
2023-05-03T04:04:11.767Z,68.96
2023-05-03T04:05:11.838Z,59.62
2023-05-03T04:06:11.695Z,60.91
2023-05-03T04:07:11.616Z,56.24
2023-05-03T04:08:11.664Z,59.14
2023-05-03T04:09:11.589Z,60.59
2023-05-03T04:10:11.640Z,61.71
2023-05-03T04:11:11.613Z,60.42
2023-05-03T04:12:11.590Z,65.58
2023-05-03T04:13:12.054Z,52.05
2023-05-03T04:14:11.533Z,59.62
2023-05-03T04:15:11.532Z,67.03
2023-05-03T04:16:11.535Z,53.17
2023-05-03T04:17:11.593Z,60.59
2023-05-03T04:18:11.631Z,59.14
2023-05-03T04:19:11.503Z,51.56
2023-05-03T04:20:11.562Z,58.01
2023-05-03T04:21:11.501Z,58.81
2023-05-03T04:22:11.479Z,57.85
2023-05-03T04:23:11.525Z,68.64
2023-05-03T04:24:11.493Z,61.55
2023-05-03T04:25:11.473Z,60.42
2023-05-03T04:26:20.236Z,62.52
2023-05-03T04:27:11.542Z,71.06
2023-05-03T04:28:11.396Z,71.22
2023-05-03T04:29:11.450Z,56.72
2023-05-03T04:30:11.422Z,60.26
2023-05-03T04:31:11.433Z,68.80
2023-05-03T04:32:11.394Z,57.69
2023-05-03T04:33:11.414Z,63.33
2023-05-03T04:34:11.433Z,67.19
2023-05-03T04:35:11.334Z,60.26
2023-05-03T04:36:11.337Z,59.62
2023-05-03T04:37:11.366Z,62.36
2023-05-03T04:38:11.363Z,55.91
2023-05-03T04:39:11.391Z,68.48
2023-05-03T04:40:11.291Z,74.77
2023-05-03T04:41:11.694Z,61.23
2023-05-03T04:42:12.063Z,55.43
2023-05-03T04:43:11.438Z,68.16
2023-05-03T04:44:11.272Z,68.16
2023-05-03T04:45:11.237Z,57.20
2023-05-03T04:46:11.281Z,58.17
2023-05-03T04:47:11.262Z,57.52
2023-05-03T04:48:11.286Z,58.01
2023-05-03T04:49:11.241Z,58.17
2023-05-03T04:50:11.425Z,66.23
2023-05-03T04:51:11.280Z,63.81
2023-05-03T04:52:11.214Z,64.29
2023-05-03T04:53:11.162Z,63.16
2023-05-03T04:54:11.165Z,59.78
2023-05-03T04:55:11.148Z,63.65
2023-05-03T04:56:11.154Z,63.81
2023-05-03T04:57:11.155Z,59.46
2023-05-03T04:58:11.166Z,67.19
2023-05-03T04:59:11.099Z,68.48
2023-05-03T05:00:11.187Z,72.03
2023-05-03T05:01:11.221Z,67.68
2023-05-03T05:02:11.061Z,65.10
2023-05-03T05:03:11.171Z,64.94
2023-05-03T05:04:11.133Z,60.75
2023-05-03T05:05:11.051Z,66.39
2023-05-03T05:06:11.064Z,62.68
2023-05-03T05:07:11.130Z,64.45
2023-05-03T05:08:11.027Z,63.16
2023-05-03T05:09:11.020Z,65.58
2023-05-03T05:10:11.109Z,68.48
2023-05-03T05:11:11.022Z,70.42
2023-05-03T05:12:11.014Z,65.58
2023-05-03T05:13:10.965Z,64.13
2023-05-03T05:14:10.944Z,62.52
2023-05-03T05:15:11.077Z,63.97
2023-05-03T05:16:10.990Z,64.29
2023-05-03T05:17:11.026Z,68.00
2023-05-03T05:18:10.937Z,62.52
2023-05-03T05:19:10.957Z,66.06
2023-05-03T05:20:11.162Z,61.39
2023-05-03T05:21:10.937Z,70.90
2023-05-03T05:22:10.901Z,67.68
2023-05-03T05:23:10.882Z,69.77
2023-05-03T05:24:10.896Z,65.74
2023-05-03T05:25:10.873Z,68.96
2023-05-03T05:26:10.831Z,64.78
2023-05-03T05:27:10.837Z,60.42
2023-05-03T05:28:10.907Z,71.70
2023-05-03T05:29:11.296Z,63.97
2023-05-03T05:30:10.855Z,58.81
2023-05-03T05:31:10.876Z,61.87
2023-05-03T05:32:10.874Z,63.49
2023-05-03T05:33:11.107Z,64.13
2023-05-03T05:34:10.944Z,71.06
2023-05-03T05:35:10.896Z,69.29
2023-05-03T05:36:10.743Z,68.80
2023-05-03T05:37:10.844Z,58.01
2023-05-03T05:38:10.905Z,65.42
2023-05-03T05:39:10.707Z,63.97
2023-05-03T05:40:10.721Z,65.90
2023-05-03T05:41:10.889Z,65.58
2023-05-03T05:42:10.708Z,67.68
2023-05-03T05:43:10.731Z,63.97
2023-05-03T05:44:10.686Z,67.68
2023-05-03T05:45:10.652Z,64.78
2023-05-03T05:46:10.633Z,74.60
2023-05-03T05:47:11.028Z,71.70
2023-05-03T05:48:10.713Z,62.84
2023-05-03T05:49:10.709Z,67.35
2023-05-03T05:50:17.765Z,64.45
2023-05-03T05:51:10.634Z,63.97
2023-05-03T05:52:11.037Z,65.42
2023-05-03T05:53:10.848Z,66.23
2023-05-03T05:54:10.634Z,66.71
2023-05-03T05:55:10.594Z,65.90
2023-05-03T05:56:10.530Z,63.16
2023-05-03T05:57:10.612Z,68.64
2023-05-03T05:58:10.577Z,64.13
2023-05-03T05:59:10.520Z,61.23
2023-05-03T06:00:10.537Z,65.74
2023-05-03T06:01:10.478Z,63.33
2023-05-03T06:02:11.265Z,60.42
2023-05-03T06:03:10.638Z,66.23
2023-05-03T06:04:11.559Z,69.29
2023-05-03T06:05:10.576Z,72.03
2023-05-03T06:06:10.580Z,68.80
2023-05-03T06:07:10.452Z,63.65
2023-05-03T06:08:10.438Z,64.94
2023-05-03T06:09:23.499Z,65.90
2023-05-03T06:10:10.453Z,64.78
2023-05-03T06:11:10.407Z,65.42
2023-05-03T06:12:10.386Z,68.16
2023-05-03T06:13:10.407Z,67.19
2023-05-03T06:14:10.692Z,69.77
2023-05-03T06:15:10.435Z,70.25
2023-05-03T06:16:10.930Z,66.87
2023-05-03T06:17:10.530Z,65.42
2023-05-03T06:18:10.415Z,74.77
2023-05-03T06:19:11.204Z,59.94
2023-05-03T06:20:10.605Z,71.54
2023-05-03T06:21:10.431Z,66.06
2023-05-03T06:22:11.364Z,62.04
2023-05-03T06:23:10.265Z,62.52
2023-05-03T06:24:10.309Z,68.00
2023-05-03T06:25:10.318Z,68.32
2023-05-03T06:26:10.462Z,76.54
2023-05-03T06:27:10.284Z,69.29
2023-05-03T06:28:10.236Z,71.54
2023-05-03T06:29:10.241Z,60.26
2023-05-03T06:30:10.203Z,66.71
2023-05-03T06:31:10.368Z,63.33
2023-05-03T06:32:10.157Z,63.97
2023-05-03T06:33:10.350Z,62.68
2023-05-03T06:34:10.572Z,62.04
2023-05-03T06:35:10.155Z,67.03
2023-05-03T06:36:10.293Z,66.06
2023-05-03T06:37:10.162Z,63.33
2023-05-03T06:38:10.168Z,64.13
2023-05-03T06:39:10.118Z,64.45
2023-05-03T06:40:10.142Z,69.29
2023-05-03T06:41:10.168Z,63.49
2023-05-03T06:42:10.111Z,60.75
2023-05-03T06:43:10.076Z,67.03
2023-05-03T06:44:10.246Z,59.46
2023-05-03T06:45:10.258Z,63.97
2023-05-03T06:46:10.098Z,68.80
2023-05-03T06:47:10.267Z,70.25
2023-05-03T06:48:10.246Z,62.04
2023-05-03T06:49:10.128Z,60.59
2023-05-03T06:50:10.223Z,60.42
2023-05-03T06:51:10.059Z,68.48
2023-05-03T06:52:11.614Z,59.14
2023-05-03T06:53:10.041Z,60.59
2023-05-03T06:54:10.073Z,59.14
2023-05-03T06:55:10.134Z,60.75
2023-05-03T06:56:09.970Z,69.29
2023-05-03T06:57:10.076Z,66.06
2023-05-03T06:58:10.020Z,63.33
2023-05-03T06:59:10.226Z,62.36
2023-05-03T07:00:09.955Z,64.29
2023-05-03T07:01:09.983Z,69.45
2023-05-03T07:02:10.017Z,67.84
2023-05-03T07:03:10.038Z,68.32
2023-05-03T07:04:09.943Z,59.62
2023-05-03T07:05:09.883Z,68.96
2023-05-03T07:06:10.676Z,63.97
2023-05-03T07:07:09.851Z,58.97
2023-05-03T07:08:09.809Z,70.25
2023-05-03T07:09:09.932Z,74.93
2023-05-03T07:10:09.866Z,66.23
2023-05-03T07:11:09.810Z,69.61
2023-05-03T07:12:10.669Z,70.74
2023-05-03T07:13:09.881Z,62.36
2023-05-03T07:14:09.785Z,66.87
2023-05-03T07:15:09.806Z,60.75
2023-05-03T07:16:09.822Z,63.00
2023-05-03T07:17:09.779Z,59.62
2023-05-03T07:18:09.761Z,60.91
2023-05-03T07:19:09.735Z,69.13
2023-05-03T07:20:09.700Z,61.55
2023-05-03T07:21:09.750Z,64.78
2023-05-03T07:22:09.718Z,64.61
2023-05-03T07:23:09.752Z,63.97
2023-05-03T07:24:09.654Z,59.94
2023-05-03T07:25:09.728Z,67.51
2023-05-03T07:26:09.660Z,59.78
2023-05-03T07:27:09.632Z,59.94
2023-05-03T07:28:09.605Z,63.16
2023-05-03T07:29:09.643Z,60.42
2023-05-03T07:30:09.598Z,60.42
2023-05-03T07:31:09.586Z,61.07
2023-05-03T07:32:09.635Z,59.14
2023-05-03T07:33:09.756Z,61.23
2023-05-03T07:34:09.671Z,60.10
2023-05-03T07:35:09.533Z,63.81
2023-05-03T07:36:09.601Z,65.42
2023-05-03T07:37:09.651Z,67.84
2023-05-03T07:38:09.620Z,62.20
2023-05-03T07:39:09.545Z,58.49
2023-05-03T07:40:09.912Z,67.51
2023-05-03T07:41:09.540Z,70.42
2023-05-03T07:42:09.581Z,58.49
2023-05-03T07:43:09.457Z,64.45
2023-05-03T07:44:09.534Z,53.98
2023-05-03T07:45:09.484Z,60.75
2023-05-03T07:46:09.523Z,84.59
2023-05-03T07:47:09.508Z,63.97
2023-05-03T07:48:09.475Z,61.87
2023-05-03T07:49:09.411Z,59.62
2023-05-03T07:50:09.477Z,62.04
2023-05-03T07:51:09.412Z,69.61
2023-05-03T07:52:09.535Z,59.78
2023-05-03T07:53:09.367Z,60.42
2023-05-03T07:54:09.414Z,62.68
2023-05-03T07:55:09.404Z,68.64
2023-05-03T07:56:09.511Z,70.90
2023-05-03T07:57:10.114Z,66.71
2023-05-03T07:58:09.406Z,69.93
2023-05-03T07:59:10.707Z,58.65
2023-05-03T08:00:09.376Z,61.39
2023-05-03T08:01:09.309Z,70.09
2023-05-03T08:02:10.123Z,61.39
2023-05-03T08:03:09.659Z,61.39
2023-05-03T08:04:10.353Z,59.78
2023-05-03T08:05:09.332Z,60.42
2023-05-03T08:06:09.451Z,60.75
2023-05-03T08:07:09.251Z,62.68
2023-05-03T08:08:09.263Z,60.26
2023-05-03T08:09:09.280Z,59.30
2023-05-03T08:10:09.304Z,58.49
2023-05-03T08:11:09.399Z,66.55
2023-05-03T08:12:09.299Z,62.20
2023-05-03T08:13:09.254Z,71.87
2023-05-03T08:14:09.163Z,65.42
2023-05-03T08:15:09.270Z,62.20
2023-05-03T08:16:09.428Z,64.94
2023-05-03T08:17:09.289Z,77.18
2023-05-03T08:18:09.164Z,62.52
2023-05-03T08:19:09.097Z,60.75
2023-05-03T08:20:09.221Z,71.54
2023-05-03T08:21:09.185Z,60.75
2023-05-03T08:22:09.176Z,61.39
2023-05-03T08:23:10.165Z,60.75
2023-05-03T08:24:09.316Z,63.33
2023-05-03T08:25:09.118Z,60.26
2023-05-03T08:26:09.177Z,64.78
2023-05-03T08:27:09.054Z,66.23
2023-05-03T08:28:09.057Z,79.76
2023-05-03T08:29:09.310Z,65.74
2023-05-03T08:30:09.188Z,66.39
2023-05-03T08:31:09.332Z,64.45
2023-05-03T08:32:09.049Z,62.04
2023-05-03T08:33:08.983Z,62.36
2023-05-03T08:34:08.972Z,60.75
2023-05-03T08:35:08.967Z,69.13
2023-05-03T08:36:09.064Z,68.16
2023-05-03T08:37:09.166Z,76.86
2023-05-03T08:38:08.978Z,75.09
2023-05-03T08:39:08.912Z,67.68
2023-05-03T08:40:09.070Z,61.23
2023-05-03T08:41:08.910Z,66.71
2023-05-03T08:42:08.887Z,67.84
2023-05-03T08:43:08.905Z,65.90
2023-05-03T08:44:08.898Z,67.84
2023-05-03T08:45:08.827Z,65.26
2023-05-03T08:46:08.884Z,67.35
2023-05-03T08:47:09.235Z,69.29
2023-05-03T08:48:08.853Z,62.84
2023-05-03T08:49:08.817Z,71.87
2023-05-03T08:50:08.827Z,61.39
2023-05-03T08:51:08.772Z,69.61
2023-05-03T08:52:08.788Z,60.26
2023-05-03T08:53:08.748Z,63.65
2023-05-03T08:54:08.738Z,65.58
2023-05-03T08:55:08.749Z,68.16
2023-05-03T08:56:08.820Z,66.71
2023-05-03T08:57:08.733Z,63.00
2023-05-03T08:58:09.019Z,60.42
2023-05-03T08:59:08.706Z,79.92
2023-05-03T09:00:08.766Z,59.14
2023-05-03T09:01:08.739Z,63.97
2023-05-03T09:02:08.748Z,64.13
2023-05-03T09:03:08.793Z,65.26
2023-05-03T09:04:08.857Z,58.65
2023-05-03T09:05:08.645Z,69.93
2023-05-03T09:06:08.763Z,76.05
2023-05-03T09:07:08.666Z,68.96
2023-05-03T09:08:08.758Z,76.05
2023-05-03T09:09:09.078Z,60.91
2023-05-03T09:10:08.688Z,61.23
2023-05-03T09:11:08.809Z,60.75
2023-05-03T09:12:08.614Z,59.30
2023-05-03T09:13:08.639Z,60.26
2023-05-03T09:14:08.605Z,65.90
2023-05-03T09:15:08.533Z,71.38
2023-05-03T09:16:08.631Z,58.81
2023-05-03T09:17:08.520Z,63.97
2023-05-03T09:18:08.590Z,61.39
2023-05-03T09:19:08.534Z,61.39
2023-05-03T09:20:08.511Z,61.87
2023-05-03T09:21:08.492Z,63.33
2023-05-03T09:22:08.588Z,65.42
2023-05-03T09:23:08.569Z,58.49
2023-05-03T09:24:08.519Z,63.65
2023-05-03T09:25:08.446Z,58.49
2023-05-03T09:26:08.459Z,66.55
2023-05-03T09:27:08.462Z,64.13
2023-05-03T09:28:08.592Z,59.78
2023-05-03T09:29:08.487Z,61.71
2023-05-03T09:30:08.384Z,63.33
2023-05-03T09:31:08.518Z,57.20
2023-05-03T09:32:08.451Z,57.69
2023-05-03T09:33:08.521Z,75.41
2023-05-03T09:34:08.384Z,62.04
2023-05-03T09:35:08.350Z,66.71
2023-05-03T09:36:08.358Z,60.42
2023-05-03T09:37:08.335Z,68.48
2023-05-03T09:38:08.330Z,62.68
2023-05-03T09:39:08.280Z,67.84
2023-05-03T09:40:08.350Z,62.68
2023-05-03T09:41:08.401Z,68.96
2023-05-03T09:42:08.410Z,64.61
2023-05-03T09:43:08.298Z,63.81
2023-05-03T09:44:08.274Z,61.87
2023-05-03T09:45:08.285Z,63.49
2023-05-03T09:46:08.448Z,63.16
2023-05-03T09:47:08.326Z,64.13
2023-05-03T09:48:08.354Z,63.00
2023-05-03T09:49:08.391Z,60.42
2023-05-03T09:50:09.038Z,69.13
2023-05-03T09:51:08.248Z,60.26
2023-05-03T09:52:08.176Z,64.29
2023-05-03T09:53:08.181Z,73.32
2023-05-03T09:54:08.171Z,70.42
2023-05-03T09:55:08.134Z,69.29
2023-05-03T09:56:08.142Z,65.26
2023-05-03T09:57:08.194Z,61.23
2023-05-03T09:58:08.149Z,66.39
2023-05-03T09:59:08.214Z,71.38
2023-05-03T10:00:08.137Z,90.23
2023-05-03T10:01:08.233Z,69.61
2023-05-03T10:02:08.148Z,60.26
2023-05-03T10:03:08.314Z,63.00
2023-05-03T10:04:08.129Z,59.78
2023-05-03T10:05:08.118Z,64.13
2023-05-03T10:06:08.162Z,64.45
2023-05-03T10:07:08.327Z,66.23
2023-05-03T10:08:08.038Z,59.94
2023-05-03T10:09:08.335Z,64.61
2023-05-03T10:10:07.999Z,62.36
2023-05-03T10:11:08.105Z,68.00
2023-05-03T10:12:07.956Z,62.04
2023-05-03T10:13:07.973Z,60.10
2023-05-03T10:14:08.023Z,60.91
2023-05-03T10:15:08.051Z,62.52
2023-05-03T10:16:08.029Z,61.07
2023-05-03T10:17:07.943Z,66.06
2023-05-03T10:18:08.068Z,65.26
2023-05-03T10:19:07.902Z,57.85
2023-05-03T10:20:07.967Z,59.78
2023-05-03T10:21:07.985Z,61.07
2023-05-03T10:22:08.203Z,62.52
2023-05-03T10:23:07.934Z,70.58
2023-05-03T10:24:08.100Z,63.81
2023-05-03T10:25:08.089Z,62.68
2023-05-03T10:26:07.888Z,65.58
2023-05-03T10:27:07.873Z,65.10
2023-05-03T10:28:07.832Z,61.55
2023-05-03T10:29:07.836Z,62.04
2023-05-03T10:30:07.995Z,65.74
2023-05-03T10:31:08.657Z,63.00
2023-05-03T10:32:07.941Z,61.55
2023-05-03T10:33:07.841Z,65.42
2023-05-03T10:34:07.783Z,60.59
2023-05-03T10:35:07.960Z,69.13
2023-05-03T10:36:07.823Z,61.71
2023-05-03T10:37:07.768Z,71.70
2023-05-03T10:38:07.756Z,67.84
2023-05-03T10:39:07.735Z,65.10
2023-05-03T10:40:07.953Z,66.71
2023-05-03T10:41:07.870Z,64.61
2023-05-03T10:42:08.215Z,66.87
2023-05-03T10:43:07.702Z,70.90
2023-05-03T10:44:07.741Z,60.10
2023-05-03T10:45:07.789Z,64.13
2023-05-03T10:46:07.798Z,69.13
2023-05-03T10:47:08.629Z,59.94
2023-05-03T10:48:07.814Z,61.07
2023-05-03T10:49:07.618Z,61.71
2023-05-03T10:50:07.862Z,65.26
2023-05-03T10:51:08.127Z,60.26
2023-05-03T10:52:07.595Z,59.30
2023-05-03T10:53:07.698Z,60.91
2023-05-03T10:54:09.301Z,63.33
2023-05-03T10:55:07.606Z,68.80
2023-05-03T10:56:07.664Z,65.26
2023-05-03T10:57:07.599Z,60.59
2023-05-03T10:58:07.702Z,58.97
2023-05-03T10:59:07.578Z,60.75
2023-05-03T11:00:07.644Z,65.10
2023-05-03T11:01:07.886Z,63.81
2023-05-03T11:02:08.731Z,69.77
2023-05-03T11:03:07.556Z,72.67
2023-05-03T11:04:07.687Z,68.48
2023-05-03T11:05:07.999Z,72.19
2023-05-03T11:06:07.467Z,65.42
2023-05-03T11:07:07.495Z,71.70
2023-05-03T11:08:07.857Z,71.22
2023-05-03T11:09:07.586Z,74.60
2023-05-03T11:10:07.598Z,69.13
2023-05-03T11:11:07.977Z,70.74
2023-05-03T11:12:08.298Z,73.64
2023-05-03T11:13:07.475Z,75.41
2023-05-03T11:14:07.445Z,75.41
2023-05-03T11:15:07.392Z,70.74
2023-05-03T11:16:07.506Z,69.77
2023-05-03T11:17:07.818Z,63.33
2023-05-03T11:18:07.721Z,59.62
2023-05-03T11:19:07.599Z,69.13
2023-05-03T11:20:07.752Z,79.44
2023-05-03T11:21:10.175Z,68.96
2023-05-03T11:22:08.101Z,62.52
2023-05-03T11:23:07.470Z,63.00
2023-05-03T11:24:09.906Z,64.29
2023-05-03T11:25:07.238Z,57.69
2023-05-03T11:26:07.960Z,69.93
2023-05-03T11:27:08.786Z,65.42
2023-05-03T11:28:07.259Z,62.68
2023-05-03T11:29:07.285Z,58.49
2023-05-03T11:30:07.431Z,58.81
2023-05-03T11:31:07.374Z,55.59
2023-05-03T11:32:07.242Z,57.20
2023-05-03T11:33:07.288Z,68.96
2023-05-03T11:34:07.242Z,67.84
2023-05-03T11:35:07.159Z,62.04
2023-05-03T11:36:07.149Z,67.84
2023-05-03T11:37:07.173Z,60.59
2023-05-03T11:38:07.256Z,61.07
2023-05-03T11:39:07.341Z,64.13
2023-05-03T11:40:07.264Z,58.81
2023-05-03T11:41:07.178Z,62.52
2023-05-03T11:42:07.173Z,59.78
2023-05-03T11:43:07.709Z,59.94
2023-05-03T11:44:15.979Z,59.78
2023-05-03T11:45:08.095Z,60.75
2023-05-03T11:46:07.249Z,67.68
2023-05-03T11:47:07.397Z,59.46
2023-05-03T11:48:07.212Z,63.00
2023-05-03T11:49:07.030Z,60.91
2023-05-03T11:50:07.364Z,66.39
2023-05-03T11:51:07.149Z,61.07
2023-05-03T11:52:07.055Z,55.75
2023-05-03T11:53:07.139Z,58.81
2023-05-03T11:54:21.024Z,71.06
2023-05-03T11:55:06.965Z,61.07
2023-05-03T11:56:08.682Z,57.04
2023-05-03T11:57:07.838Z,62.52
2023-05-03T11:58:07.362Z,62.04
2023-05-03T11:59:07.223Z,59.14
2023-05-03T12:00:06.913Z,60.26
2023-05-03T12:01:06.942Z,56.88
2023-05-03T12:02:07.418Z,58.81
2023-05-03T12:03:07.896Z,59.78
2023-05-03T12:04:07.215Z,67.35
2023-05-03T12:05:07.907Z,65.42
2023-05-03T12:06:07.209Z,65.74
2023-05-03T12:07:07.687Z,60.75
2023-05-03T12:08:07.344Z,66.23
2023-05-03T12:09:08.019Z,60.91
2023-05-03T12:10:15.811Z,62.36
2023-05-03T12:11:07.769Z,69.29
2023-05-03T12:12:09.260Z,59.62
2023-05-03T12:13:08.996Z,58.33
2023-05-03T12:14:07.926Z,61.71
2023-05-03T12:15:08.376Z,59.78
2023-05-03T12:16:12.538Z,58.17
2023-05-03T12:18:19.117Z,62.20
2023-05-03T12:19:19.238Z,60.59
2023-05-03T12:22:26.049Z,64.61
2023-05-03T12:23:18.952Z,64.13
2023-05-03T12:24:20.317Z,63.65
2023-05-03T12:25:20.262Z,66.71
2023-05-03T12:26:21.641Z,63.97
2023-05-03T12:27:19.507Z,62.68
2023-05-03T12:28:21.164Z,71.38
2023-05-03T12:29:19.386Z,59.14
2023-05-03T12:30:18.910Z,60.26
2023-05-03T12:31:18.786Z,61.87
2023-05-03T12:32:18.605Z,65.90
2023-05-03T12:33:22.065Z,61.07
2023-05-03T12:35:19.799Z,61.39
2023-05-03T12:36:21.197Z,66.23
2023-05-03T12:37:21.128Z,58.97
2023-05-03T12:38:18.615Z,62.52
2023-05-03T12:39:21.723Z,69.13
2023-05-03T12:40:31.655Z,64.61
2023-05-03T12:42:21.967Z,67.84
2023-05-03T12:43:18.544Z,66.39
2023-05-03T12:44:18.476Z,59.94
2023-05-03T12:46:34.056Z,65.10
2023-05-03T12:47:27.804Z,63.49
2023-05-03T12:48:18.773Z,58.17
2023-05-03T12:49:19.869Z,60.75
2023-05-03T12:50:19.076Z,59.78
2023-05-03T12:51:20.347Z,66.87
2023-05-03T12:52:37.321Z,65.10
2023-05-03T12:53:18.657Z,65.42
2023-05-03T12:54:19.209Z,62.52
2023-05-03T12:55:24.682Z,64.13
2023-05-03T12:56:19.191Z,65.26
2023-05-03T12:57:23.274Z,67.35
2023-05-03T12:59:40.147Z,59.46